createdAt,value
2018-09-17T00:01:21.337Z,14.00
2018-09-17T00:03:49.768Z,14.00
2018-09-17T00:06:18.132Z,14.00
2018-09-17T00:08:46.585Z,13.90
2018-09-17T00:11:14.933Z,13.80
2018-09-17T00:13:43.342Z,13.80
2018-09-17T00:16:11.801Z,13.70
2018-09-17T00:18:40.800Z,13.60
2018-09-17T00:21:09.196Z,13.60
2018-09-17T00:23:37.663Z,13.50
2018-09-17T00:26:06.732Z,13.50
2018-09-17T00:28:35.289Z,13.40
2018-09-17T00:31:04.793Z,13.40
2018-09-17T00:33:33.139Z,13.40
2018-09-17T00:36:01.513Z,13.30
2018-09-17T00:38:29.949Z,13.30
2018-09-17T00:40:58.312Z,13.30
2018-09-17T00:43:26.676Z,13.30
2018-09-17T00:45:55.677Z,13.20
2018-09-17T00:48:24.116Z,13.20
2018-09-17T00:50:52.518Z,13.20
2018-09-17T00:53:20.927Z,13.10
2018-09-17T00:55:49.315Z,13.10
2018-09-17T00:58:17.866Z,13.00
2018-09-17T01:00:46.893Z,12.90
2018-09-17T01:03:15.341Z,12.90
2018-09-17T01:05:43.733Z,12.90
2018-09-17T01:08:12.158Z,12.90
2018-09-17T01:10:40.547Z,12.90
2018-09-17T01:13:08.940Z,13.00
2018-09-17T01:15:38.359Z,13.00
2018-09-17T01:18:07.805Z,13.10
2018-09-17T01:20:37.351Z,13.10
2018-09-17T01:23:05.804Z,13.00
2018-09-17T01:25:35.070Z,12.90
2018-09-17T01:28:04.081Z,12.80
2018-09-17T01:30:32.585Z,12.80
2018-09-17T01:33:00.917Z,12.70
2018-09-17T01:35:29.333Z,12.70
2018-09-17T01:37:58.376Z,12.70
2018-09-17T01:40:27.630Z,12.70
2018-09-17T01:42:56.060Z,12.70
2018-09-17T01:45:24.569Z,12.70
2018-09-17T01:47:53.174Z,12.60
2018-09-17T01:50:21.794Z,12.60
2018-09-17T01:52:50.251Z,12.50
2018-09-17T01:55:18.632Z,12.40
2018-09-17T01:57:47.608Z,12.30
2018-09-17T02:00:16.880Z,12.30
2018-09-17T02:02:45.339Z,12.30
2018-09-17T02:05:13.774Z,12.30
2018-09-17T02:07:43.321Z,12.30
2018-09-17T02:10:12.424Z,12.30
2018-09-17T02:12:40.793Z,12.30
2018-09-17T02:15:09.247Z,12.30
2018-09-17T02:17:37.614Z,12.30
2018-09-17T02:20:06.309Z,12.30
2018-09-17T02:22:34.802Z,12.30
2018-09-17T02:25:03.488Z,12.30
2018-09-17T02:27:32.808Z,12.30
2018-09-17T02:30:01.321Z,12.20
2018-09-17T02:32:29.757Z,12.20
2018-09-17T02:34:58.137Z,12.10
2018-09-17T02:37:26.636Z,12.10
2018-09-17T02:39:55.146Z,12.10
2018-09-17T02:42:23.530Z,12.00
2018-09-17T02:44:51.920Z,12.00
2018-09-17T02:47:20.320Z,12.00
2018-09-17T02:49:48.718Z,11.90
2018-09-17T02:52:17.249Z,11.90
2018-09-17T02:54:45.688Z,11.90
2018-09-17T02:57:14.054Z,11.90
2018-09-17T02:59:42.763Z,11.90
2018-09-17T03:02:11.149Z,11.90
2018-09-17T03:04:39.606Z,11.90
2018-09-17T03:07:07.930Z,11.80
2018-09-17T03:09:36.329Z,11.80
2018-09-17T03:12:04.722Z,11.80
2018-09-17T03:14:33.210Z,11.80
2018-09-17T03:17:09.262Z,11.80
2018-09-17T03:19:39.095Z,11.80
2018-09-17T03:22:07.572Z,11.80
2018-09-17T03:24:36.045Z,11.80
2018-09-17T03:27:05.228Z,11.80
2018-09-17T03:29:34.217Z,11.80
2018-09-17T03:32:03.641Z,11.80
2018-09-17T03:34:32.056Z,11.80
2018-09-17T03:37:00.490Z,11.70
2018-09-17T03:39:28.942Z,11.70
2018-09-17T03:41:57.350Z,11.70
2018-09-17T03:44:26.323Z,11.60
2018-09-17T03:46:54.847Z,11.60
2018-09-17T03:49:23.300Z,11.50
2018-09-17T03:51:51.676Z,11.50
2018-09-17T03:54:20.134Z,11.40
2018-09-17T03:56:48.528Z,11.40
2018-09-17T03:59:16.970Z,11.40
2018-09-17T04:01:45.802Z,11.40
2018-09-17T04:04:14.271Z,11.50
2018-09-17T04:06:43.379Z,11.40
2018-09-17T04:09:11.964Z,11.40
2018-09-17T04:11:40.407Z,11.40
2018-09-17T04:14:08.863Z,11.30
2018-09-17T04:16:38.336Z,11.30
2018-09-17T04:19:06.731Z,11.20
2018-09-17T04:21:36.864Z,11.10
2018-09-17T04:24:05.519Z,11.10
2018-09-17T04:26:33.940Z,11.10
2018-09-17T04:29:02.420Z,11.00
2018-09-17T04:31:30.895Z,11.00
2018-09-17T04:33:59.232Z,11.00
2018-09-17T04:36:27.641Z,10.90
2018-09-17T04:38:56.585Z,10.90
2018-09-17T04:41:26.028Z,10.90
2018-09-17T04:43:55.067Z,10.90
2018-09-17T04:46:24.125Z,10.90
2018-09-17T04:48:53.503Z,10.90
2018-09-17T04:51:22.083Z,10.90
2018-09-17T04:53:53.920Z,10.90
2018-09-17T04:56:22.380Z,10.80
2018-09-17T04:58:50.847Z,10.90
2018-09-17T05:01:19.376Z,10.90
2018-09-17T05:03:47.727Z,10.80
2018-09-17T05:06:16.376Z,10.80
2018-09-17T05:08:44.908Z,10.90
2018-09-17T05:11:13.696Z,10.80
2018-09-17T05:13:42.198Z,10.80
2018-09-17T05:16:10.634Z,10.80
2018-09-17T05:18:39.067Z,10.80
2018-09-17T05:21:07.461Z,10.70
2018-09-17T05:23:35.898Z,10.70
2018-09-17T05:26:04.360Z,10.70
2018-09-17T05:28:32.803Z,10.70
2018-09-17T05:31:01.174Z,10.80
2018-09-17T05:33:30.208Z,10.80
2018-09-17T05:35:58.728Z,10.80
2018-09-17T05:38:27.159Z,10.80
2018-09-17T05:40:55.571Z,10.80
2018-09-17T05:43:24.207Z,10.80
2018-09-17T05:45:52.728Z,10.80
2018-09-17T05:48:21.678Z,10.80
2018-09-17T05:50:50.766Z,10.90
2018-09-17T05:53:19.608Z,10.90
2018-09-17T05:55:48.048Z,11.00
2018-09-17T05:58:16.473Z,11.10
2018-09-17T06:00:44.869Z,11.20
2018-09-17T06:03:14.312Z,11.30
2018-09-17T06:05:43.771Z,11.40
2018-09-17T06:08:13.004Z,11.60
2018-09-17T06:10:42.128Z,11.60
2018-09-17T06:13:10.622Z,11.70
2018-09-17T06:15:38.965Z,11.70
2018-09-17T06:18:07.354Z,11.80
2018-09-17T06:20:35.791Z,11.80
2018-09-17T06:23:05.468Z,11.80
2018-09-17T06:25:33.891Z,11.90
2018-09-17T06:28:02.330Z,11.90
2018-09-17T06:30:30.842Z,11.90
2018-09-17T06:32:59.375Z,11.90
2018-09-17T06:35:28.402Z,11.90
2018-09-17T06:37:56.839Z,11.90
2018-09-17T06:40:25.861Z,12.00
2018-09-17T06:42:54.258Z,12.10
2018-09-17T06:45:22.674Z,12.30
2018-09-17T06:47:51.231Z,12.40
2018-09-17T06:50:19.668Z,12.50
2018-09-17T06:52:48.394Z,12.60
2018-09-17T06:55:17.771Z,12.80
2018-09-17T07:00:24.945Z,13.20
2018-09-17T07:02:53.334Z,13.40
2018-09-17T07:05:21.761Z,13.60
2018-09-17T07:07:50.198Z,13.80
2018-09-17T07:10:18.716Z,13.90
2018-09-17T07:12:47.597Z,14.00
2018-09-17T07:15:16.087Z,14.10
2018-09-17T07:17:44.469Z,14.30
2018-09-17T07:20:12.880Z,14.40
2018-09-17T07:22:41.321Z,14.50
2018-09-17T07:25:10.795Z,14.60
2018-09-17T07:27:39.160Z,14.70
2018-09-17T07:30:07.594Z,14.80
2018-09-17T07:32:36.029Z,14.90
2018-09-17T07:35:04.503Z,14.90
2018-09-17T07:37:32.976Z,14.90
2018-09-17T07:40:01.367Z,15.00
2018-09-17T07:42:29.792Z,15.00
2018-09-17T07:44:58.198Z,15.10
2018-09-17T07:47:26.635Z,15.20
2018-09-17T07:49:55.053Z,15.30
2018-09-17T07:52:23.545Z,15.40
2018-09-17T07:54:51.933Z,15.50
2018-09-17T07:57:20.356Z,15.70
2018-09-17T07:59:49.597Z,15.70
2018-09-17T08:02:18.084Z,15.80
2018-09-17T08:04:46.532Z,15.90
2018-09-17T08:07:14.917Z,16.10
2018-09-17T08:09:43.266Z,16.20
2018-09-17T08:12:11.687Z,16.30
2018-09-17T08:14:40.122Z,16.50
2018-09-17T08:17:08.648Z,16.60
2018-09-17T08:19:37.127Z,16.70
2018-09-17T08:22:05.518Z,16.80
2018-09-17T08:24:33.961Z,16.80
2018-09-17T08:27:02.326Z,16.90
2018-09-17T08:29:30.778Z,17.00
2018-09-17T08:31:59.260Z,17.10
2018-09-17T08:34:27.944Z,17.20
2018-09-17T08:36:56.304Z,17.30
2018-09-17T08:39:24.681Z,17.40
2018-09-17T08:41:53.121Z,17.60
2018-09-17T08:44:21.556Z,17.80
2018-09-17T08:46:50.036Z,17.90
2018-09-17T08:49:18.446Z,18.20
2018-09-17T08:51:46.872Z,18.30
2018-09-17T08:54:15.264Z,18.50
2018-09-17T08:56:45.611Z,18.60
2018-09-17T08:59:19.481Z,18.80
2018-09-17T09:01:53.196Z,18.90
2018-09-17T09:04:26.357Z,19.10
2018-09-17T09:06:59.947Z,19.40
2018-09-17T09:09:28.596Z,19.60
2018-09-17T09:12:03.056Z,19.70
2018-09-17T09:14:33.588Z,19.90
2018-09-17T09:17:02.316Z,20.10
2018-09-17T09:19:30.716Z,20.30
2018-09-17T09:21:59.168Z,20.40
2018-09-17T09:24:27.598Z,20.40
2018-09-17T09:26:56.030Z,20.40
2018-09-17T09:29:24.451Z,20.60
2018-09-17T09:31:52.815Z,20.80
2018-09-17T09:34:21.201Z,20.90
2018-09-17T09:36:49.643Z,21.20
2018-09-17T09:39:18.087Z,21.40
2018-09-17T09:41:46.497Z,21.70
2018-09-17T09:44:16.064Z,21.90
2018-09-17T09:46:45.029Z,22.00
2018-09-17T09:49:14.431Z,22.10
2018-09-17T09:51:42.824Z,22.30
2018-09-17T09:54:12.082Z,22.40
2018-09-17T09:56:40.508Z,22.40
2018-09-17T09:59:09.672Z,22.40
2018-09-17T10:01:43.434Z,22.50
2018-09-17T10:04:17.118Z,22.60
2018-09-17T10:06:45.574Z,22.60
2018-09-17T10:09:19.326Z,22.70
2018-09-17T10:17:00.456Z,22.80
2018-09-17T10:19:28.980Z,22.90
2018-09-17T10:21:57.432Z,23.20
2018-09-17T10:24:25.883Z,23.40
2018-09-17T10:26:54.263Z,23.60
2018-09-17T10:29:23.442Z,23.80
2018-09-17T10:31:51.897Z,24.00
2018-09-17T10:34:20.544Z,24.20
2018-09-17T10:36:49.872Z,24.30
2018-09-17T10:39:19.142Z,24.60
2018-09-17T10:41:47.557Z,24.90
2018-09-17T10:44:15.991Z,25.10
2018-09-17T10:46:45.225Z,25.30
2018-09-17T10:49:13.613Z,25.40
2018-09-17T10:51:42.715Z,25.70
2018-09-17T10:54:11.123Z,25.80
2018-09-17T10:56:39.554Z,25.90
2018-09-17T10:59:07.935Z,25.90
2018-09-17T11:01:36.332Z,26.00
2018-09-17T11:04:04.975Z,26.10
2018-09-17T11:06:33.429Z,26.20
2018-09-17T11:09:01.817Z,26.30
2018-09-17T11:11:30.631Z,26.40
2018-09-17T11:13:59.008Z,26.60
2018-09-17T11:16:27.453Z,26.70
2018-09-17T11:18:55.837Z,26.80
2018-09-17T11:21:24.332Z,27.20
2018-09-17T11:23:52.813Z,27.60
2018-09-17T11:26:21.596Z,27.90
2018-09-17T11:28:49.969Z,28.10
2018-09-17T11:31:18.585Z,28.70
2018-09-17T11:33:47.779Z,31.20
2018-09-17T11:36:16.199Z,34.20
2018-09-17T11:38:44.641Z,36.80
2018-09-17T11:41:14.043Z,38.30
2018-09-17T11:43:42.373Z,39.00
2018-09-17T11:46:10.744Z,39.60
2018-09-17T11:48:39.936Z,40.10
2018-09-17T11:51:08.357Z,40.50
2018-09-17T11:53:36.820Z,40.40
2018-09-17T11:56:05.254Z,40.40
2018-09-17T11:58:33.684Z,40.90
2018-09-17T12:01:07.283Z,41.10
2018-09-17T12:03:41.634Z,41.60
2018-09-17T12:06:10.138Z,42.20
2018-09-17T12:08:38.549Z,42.60
2018-09-17T12:11:06.925Z,42.40
2018-09-17T12:13:35.302Z,42.60
2018-09-17T12:16:03.716Z,42.10
2018-09-17T12:18:32.140Z,42.30
2018-09-17T12:21:00.597Z,42.50
2018-09-17T12:23:29.985Z,42.60
2018-09-17T12:25:58.377Z,42.30
2018-09-17T12:28:26.835Z,42.70
2018-09-17T12:30:55.253Z,43.20
2018-09-17T12:33:23.714Z,43.80
2018-09-17T12:35:52.507Z,43.90
2018-09-17T12:38:20.934Z,43.60
2018-09-17T12:40:49.347Z,43.00
2018-09-17T12:43:18.381Z,42.10
2018-09-17T12:45:47.088Z,41.40
2018-09-17T12:48:15.632Z,41.20
2018-09-17T12:50:44.051Z,40.60
2018-09-17T12:53:12.486Z,39.50
2018-09-17T12:55:41.081Z,37.90
2018-09-17T12:58:09.847Z,36.50
2018-09-17T13:00:38.246Z,35.30
2018-09-17T13:03:06.797Z,34.50
2018-09-17T13:05:35.373Z,34.20
2018-09-17T13:08:03.860Z,34.40
2018-09-17T13:10:32.625Z,34.40
2018-09-17T13:13:01.081Z,34.50
2018-09-17T13:15:29.448Z,34.70
2018-09-17T13:17:57.864Z,34.00
2018-09-17T13:20:26.260Z,32.90
2018-09-17T13:22:55.373Z,32.00
2018-09-17T13:25:23.940Z,31.30
2018-09-17T13:27:52.472Z,30.70
2018-09-17T13:30:22.908Z,30.40
2018-09-17T13:32:51.573Z,30.30
2018-09-17T13:35:20.004Z,30.20
2018-09-17T13:37:48.428Z,30.00
2018-09-17T13:40:16.928Z,30.10
2018-09-17T13:42:45.704Z,30.40
2018-09-17T13:45:14.465Z,30.60
2018-09-17T13:47:42.869Z,30.60
2018-09-17T13:50:11.485Z,30.60
2018-09-17T13:52:40.062Z,30.40
2018-09-17T13:55:08.743Z,30.20
2018-09-17T13:57:38.032Z,30.00
2018-09-17T14:00:06.751Z,29.90
2018-09-17T14:02:35.273Z,30.00
2018-09-17T14:05:03.750Z,30.40
2018-09-17T14:07:32.209Z,30.60
2018-09-17T14:10:00.664Z,30.70
2018-09-17T14:12:29.063Z,30.60
2018-09-17T14:14:57.501Z,30.30
2018-09-17T14:17:25.979Z,30.30
2018-09-17T14:19:54.419Z,30.80
2018-09-17T14:22:23.076Z,31.00
2018-09-17T14:29:46.278Z,30.60
2018-09-17T14:32:20.017Z,30.20
2018-09-17T14:34:49.354Z,30.00
2018-09-17T14:37:18.560Z,29.80
2018-09-17T14:39:47.093Z,29.80
2018-09-17T14:42:15.661Z,29.80
2018-09-17T14:44:44.171Z,29.80
2018-09-17T14:47:12.712Z,29.90
2018-09-17T14:49:41.225Z,30.00
2018-09-17T14:52:10.697Z,30.00
2018-09-17T14:54:39.336Z,30.20
2018-09-17T14:57:07.723Z,30.40
2018-09-17T14:59:36.132Z,30.60
2018-09-17T15:02:04.511Z,30.70
2018-09-17T15:04:33.876Z,30.70
2018-09-17T15:07:02.256Z,30.60
2018-09-17T15:09:30.759Z,30.60
2018-09-17T15:11:59.237Z,30.60
2018-09-17T15:14:28.475Z,30.60
2018-09-17T15:16:56.839Z,30.60
2018-09-17T15:19:25.354Z,30.60
2018-09-17T15:22:00.344Z,30.60
2018-09-17T15:24:28.707Z,30.20
2018-09-17T15:26:57.512Z,30.00
2018-09-17T15:29:25.935Z,29.70
2018-09-17T15:31:54.411Z,29.50
2018-09-17T15:34:22.937Z,29.20
2018-09-17T15:36:51.201Z,29.00
2018-09-17T15:39:19.621Z,28.80
2018-09-17T15:41:48.755Z,28.60
2018-09-17T15:44:17.267Z,28.50
2018-09-17T15:46:46.605Z,28.30
2018-09-17T15:49:14.965Z,28.20
2018-09-17T15:51:43.385Z,28.00
2018-09-17T15:54:11.753Z,27.90
2018-09-17T15:56:40.140Z,27.80
2018-09-17T15:59:08.873Z,27.70
2018-09-17T16:01:37.986Z,27.70
2018-09-17T16:04:06.399Z,27.60
2018-09-17T16:06:34.816Z,27.60
2018-09-17T16:09:03.378Z,27.50
2018-09-17T16:11:31.811Z,27.40
2018-09-17T16:14:00.247Z,27.30
2018-09-17T16:16:28.656Z,27.10
2018-09-17T16:18:57.096Z,26.90
2018-09-17T16:21:25.659Z,26.80
2018-09-17T16:23:54.308Z,26.70
2018-09-17T16:26:23.303Z,26.50
2018-09-17T16:28:51.916Z,26.30
2018-09-17T16:31:20.348Z,26.20
2018-09-17T16:33:48.750Z,26.00
2018-09-17T16:36:17.244Z,25.90
2018-09-17T16:38:46.780Z,25.70
2018-09-17T16:41:15.633Z,25.60
2018-09-17T16:43:44.151Z,25.50
2018-09-17T16:46:12.878Z,25.30
2018-09-17T16:48:41.317Z,25.20
2018-09-17T16:51:09.807Z,25.00
2018-09-17T16:53:39.397Z,24.90
2018-09-17T16:56:07.766Z,24.80
2018-09-17T16:58:36.248Z,24.70
2018-09-17T17:01:04.682Z,24.50
2018-09-17T17:03:33.092Z,24.40
2018-09-17T17:06:01.607Z,24.30
2018-09-17T17:08:30.037Z,24.10
2018-09-17T17:10:58.518Z,24.00
2018-09-17T17:13:27.862Z,23.80
2018-09-17T17:15:56.465Z,23.60
2018-09-17T17:18:25.774Z,23.50
2018-09-17T17:20:54.177Z,23.30
2018-09-17T17:23:22.844Z,23.20
2018-09-17T17:25:51.386Z,23.00
2018-09-17T17:28:20.227Z,22.90
2018-09-17T17:30:49.814Z,22.80
2018-09-17T17:33:18.593Z,22.70
2018-09-17T17:35:47.220Z,22.60
2018-09-17T17:38:15.730Z,22.40
2018-09-17T17:40:44.198Z,22.30
2018-09-17T17:43:12.675Z,22.10
2018-09-17T17:45:41.315Z,22.00
2018-09-17T17:48:09.747Z,21.90
2018-09-17T17:50:38.572Z,21.80
2018-09-17T17:53:07.125Z,21.80
2018-09-17T17:55:35.771Z,21.80
2018-09-17T17:58:04.310Z,21.70
2018-09-17T18:00:33.022Z,21.60
2018-09-17T18:03:01.485Z,21.60
2018-09-17T18:05:30.065Z,21.50
2018-09-17T18:07:58.547Z,21.40
2018-09-17T18:10:27.074Z,21.40
2018-09-17T18:12:56.899Z,21.30
2018-09-17T18:15:26.862Z,21.30
2018-09-17T18:17:56.257Z,21.20
2018-09-17T18:20:26.062Z,21.20
2018-09-17T18:22:54.572Z,21.10
2018-09-17T18:25:22.987Z,21.10
2018-09-17T18:27:51.393Z,21.10
2018-09-17T18:30:19.885Z,21.00
2018-09-17T18:32:48.490Z,21.10
2018-09-17T18:35:17.034Z,21.00
2018-09-17T18:37:45.549Z,21.10
2018-09-17T18:40:14.095Z,21.10
2018-09-17T18:42:42.601Z,21.20
2018-09-17T18:45:11.081Z,21.20
2018-09-17T18:47:41.089Z,21.20
2018-09-17T18:50:11.542Z,21.20
2018-09-17T18:52:40.873Z,21.20
2018-09-17T18:55:09.432Z,21.20
2018-09-17T18:57:38.040Z,21.20
2018-09-17T19:00:07.774Z,21.10
2018-09-17T19:02:36.296Z,21.10
2018-09-17T19:05:04.825Z,21.00
2018-09-17T19:07:33.252Z,20.90
2018-09-17T19:10:01.729Z,20.80
2018-09-17T19:12:30.308Z,20.70
2018-09-17T19:15:04.132Z,20.60
2018-09-17T19:17:37.777Z,20.50
2018-09-17T19:20:07.184Z,20.40
2018-09-17T19:22:40.945Z,20.30
2018-09-17T19:30:13.996Z,20.00
2018-09-17T19:32:42.449Z,19.80
2018-09-17T19:35:11.087Z,19.80
2018-09-17T19:37:45.101Z,19.70
2018-09-17T19:40:19.211Z,19.60
2018-09-17T19:42:48.529Z,19.60
2018-09-17T19:45:22.357Z,19.50
2018-09-17T19:47:52.592Z,19.50
2018-09-17T19:50:26.194Z,19.40
2018-09-17T19:52:54.953Z,19.40
2018-09-17T19:55:23.376Z,19.30
2018-09-17T19:57:57.867Z,19.30
2018-09-17T20:00:26.634Z,19.30
2018-09-17T20:02:55.228Z,19.20
2018-09-17T20:05:29.413Z,19.20
2018-09-17T20:07:58.145Z,19.10
2018-09-17T20:10:26.801Z,19.10
2018-09-17T20:12:55.428Z,18.90
2018-09-17T20:15:23.976Z,18.80
2018-09-17T20:17:52.392Z,18.80
2018-09-17T20:20:20.981Z,18.70
2018-09-17T20:22:50.319Z,18.70
2018-09-17T20:25:19.370Z,18.60
2018-09-17T20:27:47.781Z,18.60
2018-09-17T20:30:16.912Z,18.50
2018-09-17T20:32:51.598Z,18.50
2018-09-17T20:35:20.630Z,18.50
2018-09-17T20:37:49.316Z,18.50
2018-09-17T20:40:17.828Z,18.50
2018-09-17T20:42:46.491Z,18.40
2018-09-17T20:45:15.081Z,18.40
2018-09-17T20:47:43.511Z,18.30
2018-09-17T20:50:11.995Z,18.20
2018-09-17T20:52:40.500Z,18.20
2018-09-17T20:55:09.216Z,18.20
2018-09-17T20:57:37.725Z,18.10
2018-09-17T21:00:06.417Z,18.10
2018-09-17T21:02:34.854Z,18.10
2018-09-17T21:05:03.337Z,18.10
2018-09-17T21:07:32.148Z,18.00
2018-09-17T21:10:00.543Z,18.00
2018-09-17T21:12:29.266Z,18.00
2018-09-17T21:14:57.647Z,17.90
2018-09-17T21:17:26.080Z,17.90
2018-09-17T21:19:54.661Z,17.80
2018-09-17T21:22:23.130Z,17.80
2018-09-17T21:24:53.118Z,17.70
2018-09-17T21:27:21.445Z,17.60
2018-09-17T21:29:49.830Z,17.60
2018-09-17T21:32:19.017Z,17.50
2018-09-17T21:34:47.603Z,17.50
2018-09-17T21:37:16.141Z,17.50
2018-09-17T21:39:44.649Z,17.50
2018-09-17T21:42:13.611Z,17.50
2018-09-17T21:44:42.530Z,17.50
2018-09-17T21:47:11.258Z,17.60
2018-09-17T21:49:39.685Z,17.60
2018-09-17T21:52:08.132Z,17.60
2018-09-17T21:54:37.183Z,17.60
2018-09-17T21:57:05.930Z,17.60
2018-09-17T21:59:34.350Z,17.60
2018-09-17T22:02:02.821Z,17.50
2018-09-17T22:04:31.626Z,17.50
2018-09-17T22:07:00.591Z,17.40
2018-09-17T22:09:31.866Z,17.30
2018-09-17T22:12:00.448Z,17.30
2018-09-17T22:14:29.232Z,17.20
2018-09-17T22:16:58.161Z,17.10
2018-09-17T22:19:26.532Z,17.00
2018-09-17T22:21:54.907Z,17.00
2018-09-17T22:24:23.356Z,16.90
2018-09-17T22:26:51.741Z,16.90
2018-09-17T22:29:20.255Z,16.80
2018-09-17T22:31:48.680Z,16.80
2018-09-17T22:34:19.425Z,16.70
2018-09-17T22:36:47.814Z,16.70
2018-09-17T22:39:16.260Z,16.60
2018-09-17T22:41:45.456Z,16.50
2018-09-17T22:44:13.901Z,16.40
2018-09-17T22:46:42.280Z,16.40
2018-09-17T22:49:10.659Z,16.30
2018-09-17T22:51:39.033Z,16.30
2018-09-17T22:54:07.702Z,16.30
2018-09-17T22:56:36.163Z,16.30
2018-09-17T22:59:04.604Z,16.30
2018-09-17T23:01:33.029Z,16.20
2018-09-17T23:04:03.215Z,16.20
2018-09-17T23:06:31.983Z,16.10
2018-09-17T23:09:00.927Z,16.10
2018-09-17T23:11:29.344Z,16.10
2018-09-17T23:13:58.224Z,16.10
2018-09-17T23:16:26.714Z,16.00
2018-09-17T23:18:55.106Z,16.00
2018-09-17T23:21:23.552Z,15.90
2018-09-17T23:23:52.051Z,15.90
2018-09-17T23:26:20.482Z,15.90
2018-09-17T23:28:49.144Z,15.90
2018-09-17T23:31:17.508Z,16.00
2018-09-17T23:33:45.969Z,16.00
2018-09-17T23:36:14.913Z,16.10
2018-09-17T23:38:43.377Z,16.10
2018-09-17T23:41:13.145Z,16.10
2018-09-17T23:43:42.577Z,16.10
2018-09-17T23:46:11.753Z,16.00
2018-09-17T23:48:40.856Z,16.00
2018-09-17T23:51:10.288Z,15.90
2018-09-17T23:53:38.649Z,15.90
2018-09-17T23:56:07.437Z,15.80
2018-09-17T23:58:36.857Z,15.80
